Time;durP1;ratioP1;P1;durP2;ratioP2;P2;SDS_P1;SDS_P2;PMS_P1;PMS_P2;Temp;Humidity;BMP_temperature;BMP_pressure;BME280_temperature;BME280_humidity;BME280_pressure;Samples;Min_cycle;Max_cycle;Signal;HPM_P1;HPM_P2
2021/12/28 00:01:24;;;;;;;24.00;4.53;;;;;;;8.24;93.85;99261.88;5050883;28;20427;-77
2021/12/28 00:03:50;;;;;;;27.02;6.18;;;;;;;8.26;93.46;99265.16;5051801;28;20395;-79
2021/12/28 00:06:16;;;;;;;24.75;5.28;;;;;;;8.24;92.89;99261.88;5052268;28;20028;-77
2021/12/28 00:08:42;;;;;;;19.88;4.60;;;;;;;8.21;93.05;99265.06;5052441;28;20028;-79
2021/12/28 00:11:08;;;;;;;22.38;5.35;;;;;;;8.16;92.93;99262.31;5051514;28;20387;-77
2021/12/28 00:13:34;;;;;;;23.80;5.22;;;;;;;8.16;93.05;99262.31;5052611;28;20025;-76
2021/12/28 00:16:24;;;;;;;29.88;5.93;;;;;;;8.14;94.07;99264.47;5051355;28;20029;-79
2021/12/28 00:18:47;;;;;;;27.27;6.40;;;;;;;8.13;93.51;99262.81;5052001;28;20045;-79
2021/12/28 00:21:12;;;;;;;22.83;5.07;;;;;;;8.11;93.27;99259.56;5052821;28;20031;-76
2021/12/28 00:23:39;;;;;;;20.17;5.00;;;;;;;8.12;92.80;99251.22;5052828;28;20036;-79
2021/12/28 00:26:07;;;;;;;22.27;6.65;;;;;;;8.08;93.01;99257.38;5052401;28;20063;-77
2021/12/28 00:28:33;;;;;;;26.00;6.03;;;;;;;8.10;93.15;99252.53;5051021;28;20055;-76
2021/12/28 00:30:58;;;;;;;30.10;5.40;;;;;;;8.07;92.45;99244.94;5050766;28;20378;-79
2021/12/28 00:33:25;;;;;;;22.20;5.57;;;;;;;8.08;92.89;99249.28;5051201;28;20040;-77
2021/12/28 00:35:51;;;;;;;21.17;5.88;;;;;;;8.04;92.90;99238.16;5051216;28;20434;-76
2021/12/28 00:38:22;;;;;;;25.08;5.45;;;;;;;8.05;93.47;99236.31;5052111;28;20029;-76
2021/12/28 00:40:54;;;;;;;23.00;5.47;;;;;;;8.05;92.89;99241.69;5050956;28;20464;-79
2021/12/28 00:43:20;;;;;;;21.50;4.97;;;;;;;8.06;92.74;99240.63;5050613;28;20024;-79
2021/12/28 00:45:46;;;;;;;28.40;5.50;;;;;;;8.01;93.16;99237.84;5051975;28;20115;-79
2021/12/28 00:48:12;;;;;;;25.58;5.45;;;;;;;8.04;93.22;99238.16;5051907;28;20033;-78
2021/12/28 00:50:37;;;;;;;25.27;5.78;;;;;;;8.01;93.14;99232.47;5052226;28;20152;-77
2021/12/28 00:53:04;;;;;;;28.40;5.72;;;;;;;8.01;93.06;99230.59;5052316;28;20029;-78
2021/12/28 00:55:29;;;;;;;25.80;6.28;;;;;;;8.04;93.66;99226.59;5052506;28;20036;-76
2021/12/28 00:57:54;;;;;;;25.83;6.85;;;;;;;8.06;93.17;99219.06;5051832;28;20484;-77
2021/12/28 01:00:27;;;;;;;25.38;5.65;;;;;;;8.09;93.68;99227.47;5051347;28;20033;-79
2021/12/28 01:02:54;;;;;;;29.35;5.07;;;;;;;8.06;93.29;99219.06;5052074;28;20036;-76
2021/12/28 01:05:20;;;;;;;25.67;5.18;;;;;;;8.08;93.08;99216.97;5050739;28;20456;-77
2021/12/28 01:07:46;;;;;;;23.27;5.45;;;;;;;8.08;93.06;99216.97;5050526;28;20037;-79
2021/12/28 01:10:15;;;;;;;27.05;5.63;;;;;;;8.06;92.65;99216.38;5051881;28;20048;-79
2021/12/28 01:12:41;;;;;;;30.20;5.97;;;;;;;8.07;92.99;99212.63;5056503;28;20598;-78
2021/12/28 01:15:09;;;;;;;28.25;5.28;;;;;;;8.05;92.20;99212.06;5055718;28;20029;-78
2021/12/28 01:17:36;;;;;;;28.73;5.68;;;;;;;8.06;92.50;99214.50;5055047;28;20087;-77
2021/12/28 01:20:03;;;;;;;29.13;4.80;;;;;;;8.02;92.32;99201.75;5056082;28;20072;-80
2021/12/28 01:22:29;;;;;;;23.98;5.07;;;;;;;8.03;91.98;99206.09;5054783;28;20438;-79
2021/12/28 01:24:54;;;;;;;26.40;5.13;;;;;;;7.97;92.61;99202.50;5055690;28;20037;-79
2021/12/28 01:27:20;;;;;;;27.02;5.35;;;;;;;7.99;92.31;99203.91;5054860;28;20082;-79
2021/12/28 01:29:45;;;;;;;29.05;5.45;;;;;;;7.99;92.16;99200.41;5054481;28;20495;-79
2021/12/28 01:32:11;;;;;;;27.45;5.55;;;;;;;7.98;92.38;99199.56;5056026;28;20086;-77
2021/12/28 01:34:37;;;;;;;26.92;5.32;;;;;;;7.96;92.16;99195.50;5054043;28;20037;-80
2021/12/28 01:37:03;;;;;;;29.23;5.75;;;;;;;7.98;92.09;99196.88;5054329;28;20082;-77
2021/12/28 01:39:28;;;;;;;25.63;5.45;;;;;;;7.91;91.67;99196.25;5054722;28;20033;-79
2021/12/28 01:41:53;;;;;;;28.25;5.43;;;;;;;7.96;92.15;99199.00;5055542;28;20056;-77
2021/12/28 01:44:19;;;;;;;24.67;5.72;;;;;;;7.95;91.99;99197.38;5055811;28;20033;-77
2021/12/28 01:46:44;;;;;;;31.75;5.38;;;;;;;7.91;91.78;99193.56;5056100;28;20033;-76
2021/12/28 01:49:10;;;;;;;28.27;5.22;;;;;;;7.94;91.79;99193.06;5044943;28;20025;-79
2021/12/28 01:51:36;;;;;;;29.45;5.45;;;;;;;7.95;91.59;99197.38;5034442;28;20026;-78
2021/12/28 01:54:04;;;;;;;27.80;5.13;;;;;;;7.94;91.82;99193.06;5035393;28;20057;-79
2021/12/28 01:56:38;;;;;;;28.35;5.20;;;;;;;7.96;91.71;99203.59;5034420;28;20112;-76
2021/12/28 01:59:05;;;;;;;25.75;5.22;;;;;;;7.95;91.57;99191.97;5050756;28;20457;-80
2021/12/28 02:01:31;;;;;;;29.35;5.05;;;;;;;7.95;91.90;99197.38;5048377;28;20119;-79
2021/12/28 02:03:56;;;;;;;34.03;5.70;;;;;;;7.95;91.70;99186.59;5055411;28;20111;-81
2021/12/28 02:06:25;;;;;;;26.88;5.65;;;;;;;7.94;92.01;99189.53;5055426;28;20028;-79
2021/12/28 02:08:51;;;;;;;27.52;6.18;;;;;;;7.95;92.02;99194.69;5054933;28;20091;-78
2021/12/28 02:11:16;;;;;;;26.58;5.78;;;;;;;7.97;92.14;99184.47;5055373;28;20452;-80
2021/12/28 02:13:41;;;;;;;29.27;5.53;;;;;;;7.99;92.10;99190.44;5055089;28;20033;-78
2021/12/28 02:16:07;;;;;;;27.55;5.47;;;;;;;7.98;91.89;99191.47;5055210;28;20103;-77
2021/12/28 02:18:34;;;;;;;28.63;5.90;;;;;;;8.05;92.20;99190.50;5055065;28;20037;-81
2021/12/28 02:21:02;;;;;;;28.55;5.60;;;;;;;8.03;92.54;99188.06;5054373;28;20037;-81
2021/12/28 02:23:28;;;;;;;31.80;5.97;;;;;;;8.03;92.46;99189.94;5055496;28;20090;-76
2021/12/28 02:25:53;;;;;;;29.38;5.65;;;;;;;8.03;92.41;99187.22;5054722;28;20113;-79
2021/12/28 02:28:20;;;;;;;22.58;5.45;;;;;;;8.05;92.41;99187.81;5054703;28;20036;-76
2021/12/28 02:30:48;;;;;;;26.40;5.72;;;;;;;8.03;92.73;99181.84;5054876;28;20472;-81
2021/12/28 02:33:14;;;;;;;29.83;5.50;;;;;;;8.05;92.53;99177.03;5054355;28;20033;-79
2021/12/28 02:35:40;;;;;;;29.55;5.43;;;;;;;8.03;92.81;99179.16;5054968;28;20525;-80
2021/12/28 02:38:07;;;;;;;37.38;6.60;;;;;;;8.08;93.54;99176.53;5054107;28;20403;-76
2021/12/28 02:40:34;;;;;;;28.65;5.40;;;;;;;8.06;92.52;99167.88;5054587;28;20036;-81
2021/12/28 02:43:01;;;;;;;34.88;5.78;;;;;;;8.06;91.76;99178.66;5054618;28;20530;-77
2021/12/28 02:45:29;;;;;;;25.65;5.13;;;;;;;8.12;92.89;99181.19;5053461;28;20162;-76
2021/12/28 02:47:55;;;;;;;31.20;5.60;;;;;;;8.13;92.63;99179.28;5053263;28;20025;-77
2021/12/28 02:50:24;;;;;;;24.52;5.57;;;;;;;8.14;92.68;99172.84;5053126;28;20460;-77
2021/12/28 02:52:51;;;;;;;31.85;5.90;;;;;;;8.14;92.17;99167.47;5054395;28;20051;-78
2021/12/28 02:55:19;;;;;;;27.15;5.65;;;;;;;8.12;92.72;99159.63;5054564;28;20115;-79
2021/12/28 02:57:53;;;;;;;29.80;5.07;;;;;;;8.15;93.04;99153.75;5053015;28;20482;-78
2021/12/28 03:00:49;;;;;;;31.73;5.68;;;;;;;8.21;92.65;99153.78;5052357;28;20119;-77
2021/12/28 03:03:19;;;;;;;27.38;4.95;;;;;;;8.14;92.79;99145.91;5053301;28;20041;-81
2021/12/28 03:05:46;;;;;;;29.92;5.85;;;;;;;8.16;92.68;99146.47;5052990;28;20111;-78
2021/12/28 03:08:13;;;;;;;31.10;5.88;;;;;;;8.18;92.53;99147.00;5052585;28;20464;-80
2021/12/28 03:10:39;;;;;;;35.90;5.85;;;;;;;8.18;92.49;99143.50;5052918;28;20127;-78
2021/12/28 03:13:07;;;;;;;26.95;5.35;;;;;;;8.17;92.58;99150.78;5052801;28;20055;-79
2021/12/28 03:15:33;;;;;;;27.83;5.72;;;;;;;8.19;92.63;99147.84;5052728;28;20078;-81
2021/12/28 03:17:58;;;;;;;22.98;5.32;;;;;;;8.16;93.17;99149.16;5052453;28;20423;-78
2021/12/28 03:20:24;;;;;;;28.33;5.60;;;;;;;8.20;92.43;99142.19;5052432;28;20044;-78
2021/12/28 03:22:49;;;;;;;27.77;5.20;;;;;;;8.21;92.40;99149.19;5045231;28;20084;-80
2021/12/28 03:25:14;;;;;;;37.60;6.55;;;;;;;8.18;92.15;99141.63;5033957;28;20113;-79
2021/12/28 03:27:41;;;;;;;30.15;6.03;;;;;;;8.20;92.56;99142.19;5034197;28;20029;-78
2021/12/28 03:30:10;;;;;;;30.80;5.88;;;;;;;8.19;92.80;99137.88;5048688;28;20527;-78
2021/12/28 03:32:35;;;;;;;21.27;4.43;;;;;;;8.20;92.56;99133.28;5033505;28;20037;-78
2021/12/28 03:35:03;;;;;;;33.90;5.70;;;;;;;8.22;93.08;99134.66;5037286;28;20037;-79
2021/12/28 03:37:30;;;;;;;28.27;5.57;;;;;;;8.24;93.26;99132.53;5053511;28;20032;-78
2021/12/28 03:39:55;;;;;;;28.20;4.78;;;;;;;8.23;93.39;99122.84;5052245;28;20029;-81
2021/12/28 03:42:21;;;;;;;25.15;4.88;;;;;;;8.26;93.27;99122.34;5053690;28;20530;-79
2021/12/28 03:44:46;;;;;;;25.23;5.15;;;;;;;8.28;93.83;99124.78;5051954;28;20040;-78
2021/12/28 03:47:11;;;;;;;25.38;4.60;;;;;;;8.28;93.84;99114.81;5052172;28;20377;-80
2021/12/28 03:49:37;;;;;;;24.65;4.93;;;;;;;8.30;92.87;99112.69;5053580;28;20441;-79
2021/12/28 03:52:06;;;;;;;21.38;4.30;;;;;;;8.34;93.77;99115.69;5050724;28;20107;-79
2021/12/28 03:54:32;;;;;;;19.88;3.85;;;;;;;8.26;93.43;99102.66;5052845;28;20040;-79
2021/12/28 03:56:58;;;;;;;21.17;4.60;;;;;;;8.33;93.82;99106.78;5053035;28;20040;-80
2021/12/28 03:59:23;;;;;;;24.83;4.82;;;;;;;8.36;93.23;99101.94;5053331;28;20099;-78
2021/12/28 04:01:49;;;;;;;31.05;5.22;;;;;;;8.36;93.95;99100.06;5050975;28;20032;-76
2021/12/28 04:04:14;;;;;;;23.13;4.85;;;;;;;8.37;93.72;99106.28;5053189;28;20029;-81
2021/12/28 04:06:39;;;;;;;22.98;4.38;;;;;;;8.40;93.51;99103.06;5053548;28;20438;-78
2021/12/28 04:09:07;;;;;;;21.55;4.28;;;;;;;8.42;93.89;99096.34;5052775;28;20037;-78
2021/12/28 04:11:32;;;;;;;20.05;4.40;;;;;;;8.43;93.93;99094.47;5053052;28;20025;-76
2021/12/28 04:14:04;;;;;;;24.63;4.30;;;;;;;8.44;94.03;99090.72;5051232;28;20499;-76
2021/12/28 04:16:30;;;;;;;24.77;4.30;;;;;;;8.47;93.56;99092.91;5052845;28;20033;-77
2021/12/28 04:18:57;;;;;;;18.92;3.83;;;;;;;8.48;93.22;99086.47;5052728;28;20389;-80
2021/12/28 04:21:23;;;;;;;24.17;4.20;;;;;;;8.48;94.20;99089.16;5051621;28;20063;-79
2021/12/28 04:23:48;;;;;;;24.35;4.07;;;;;;;8.49;94.00;99099.69;5052509;28;20060;-80
2021/12/28 04:26:14;;;;;;;25.15;5.35;;;;;;;8.51;94.80;99092.19;5052695;28;20098;-81
2021/12/28 04:28:40;;;;;;;22.90;3.95;;;;;;;8.51;93.79;99089.47;5051272;28;20024;-79
2021/12/28 04:31:05;;;;;;;24.80;4.70;;;;;;;8.55;94.57;99094.38;5052295;28;20079;-80
2021/12/28 04:33:31;;;;;;;22.27;4.07;;;;;;;8.56;94.33;99093.28;5051243;28;20041;-76
2021/12/28 04:35:56;;;;;;;21.52;4.28;;;;;;;8.55;95.00;99091.66;5051211;28;20035;-77
2021/12/28 04:38:22;;;;;;;26.83;3.90;;;;;;;8.56;93.89;99093.28;5052589;28;20052;-81
2021/12/28 04:40:47;;;;;;;20.08;4.35;;;;;;;8.57;94.40;99101.09;5052556;28;20043;-80
2021/12/28 04:43:15;;;;;;;21.65;3.97;;;;;;;8.58;94.51;99094.66;5052016;28;20037;-78
2021/12/28 04:45:40;;;;;;;20.35;4.30;;;;;;;8.64;93.94;99107.13;5051852;28;20083;-78
2021/12/28 04:48:07;;;;;;;23.90;4.10;;;;;;;8.65;93.89;99103.38;5067515;28;20476;-76
2021/12/28 04:50:41;;;;;;;19.48;4.30;;;;;;;8.64;94.31;99109.81;5051854;28;20064;-82
2021/12/28 04:53:11;;;;;;;24.67;4.18;;;;;;;8.65;94.35;99114.16;5050776;28;20025;-78
2021/12/28 04:55:38;;;;;;;18.15;3.80;;;;;;;8.65;94.17;99108.75;5052525;28;20039;-79
2021/12/28 04:58:04;;;;;;;21.85;3.80;;;;;;;8.67;94.63;99105.81;5052216;28;20041;-75
2021/12/28 05:00:29;;;;;;;24.90;3.58;;;;;;;8.67;94.79;99106.59;5050076;28;20521;-80
2021/12/28 05:02:54;;;;;;;22.95;3.55;;;;;;;8.68;94.61;99102.84;5051042;28;20072;-80
2021/12/28 05:05:20;;;;;;;18.30;3.33;;;;;;;8.71;94.49;99103.41;5051925;28;20064;-79
2021/12/28 05:07:45;;;;;;;22.27;3.72;;;;;;;8.71;94.91;99095.31;5050729;28;20025;-77
2021/12/28 05:10:11;;;;;;;21.08;3.67;;;;;;;8.69;94.53;99092.88;5050843;28;20036;-81
2021/12/28 05:12:37;;;;;;;17.33;3.53;;;;;;;8.68;94.30;99092.06;5051730;28;20036;-77
2021/12/28 05:15:06;;;;;;;17.13;3.50;;;;;;;8.69;94.29;99088.28;5050566;28;20392;-78
2021/12/28 05:17:32;;;;;;;16.63;3.10;;;;;;;8.71;93.93;99090.75;5050412;28;20088;-79
2021/12/28 05:19:57;;;;;;;17.90;3.25;;;;;;;8.71;94.69;99084.53;5035039;28;20065;-81
2021/12/28 05:22:22;;;;;;;25.52;4.15;;;;;;;8.73;94.32;99085.09;5032244;28;20034;-81
2021/12/28 05:24:48;;;;;;;14.60;3.70;;;;;;;8.74;94.42;99084.00;5030941;28;20037;-78
2021/12/28 05:27:13;;;;;;;20.92;3.70;;;;;;;8.74;94.45;99081.31;5032064;28;20070;-77
2021/12/28 05:29:39;;;;;;;14.60;2.92;;;;;;;8.73;94.09;99088.59;5043998;28;20033;-80
2021/12/28 05:32:05;;;;;;;14.52;3.05;;;;;;;8.72;94.96;99072.69;5051761;28;20040;-76
2021/12/28 05:34:30;;;;;;;14.30;2.97;;;;;;;8.74;93.98;99075.91;5052056;28;20029;-82
2021/12/28 05:36:55;;;;;;;13.07;2.88;;;;;;;8.74;94.26;99073.22;5050826;28;20036;-77
2021/12/28 05:39:21;;;;;;;14.77;2.90;;;;;;;8.76;94.39;99074.59;5051681;28;20857;-79
2021/12/28 05:41:46;;;;;;;15.35;3.53;;;;;;;8.77;94.56;99078.09;5051888;28;20040;-79
2021/12/28 05:44:12;;;;;;;15.50;3.13;;;;;;;8.78;94.40;99067.06;5051411;28;20043;-79
2021/12/28 05:46:37;;;;;;;18.48;3.22;;;;;;;8.78;94.04;99064.34;5051717;28;20110;-79
2021/12/28 05:49:03;;;;;;;15.35;3.00;;;;;;;8.77;94.17;99067.31;5050430;28;20067;-78
2021/12/28 05:51:28;;;;;;;17.75;3.15;;;;;;;8.76;94.35;99055.72;5051501;28;20043;-78
2021/12/28 05:53:54;;;;;;;14.93;2.90;;;;;;;8.76;94.79;99055.72;5051702;28;20037;-78
2021/12/28 05:56:19;;;;;;;15.52;3.17;;;;;;;8.75;94.53;99056.78;5052598;28;20127;-80
2021/12/28 05:58:44;;;;;;;15.45;2.67;;;;;;;8.75;94.90;99039.81;5055537;28;20033;-80
2021/12/28 06:01:10;;;;;;;13.38;2.60;;;;;;;8.76;94.96;99057.63;5052997;28;20033;-78
2021/12/28 06:03:35;;;;;;;13.77;2.75;;;;;;;8.79;95.05;99049.00;5054046;28;20116;-82
2021/12/28 06:06:03;;;;;;;12.38;2.70;;;;;;;8.78;94.40;99047.38;5054202;28;20090;-81
2021/12/28 06:08:28;;;;;;;10.25;2.85;;;;;;;8.77;94.38;99040.34;5053837;28;20065;-80
2021/12/28 06:10:58;;;;;;;11.98;2.88;;;;;;;8.80;94.94;99037.97;5055159;28;20444;-81
2021/12/28 06:13:23;;;;;;;12.38;2.78;;;;;;;8.77;94.99;99033.09;5054872;28;20029;-82
2021/12/28 06:15:49;;;;;;;10.43;2.67;;;;;;;8.79;94.88;99039.03;5053798;28;20025;-81
2021/12/28 06:18:14;;;;;;;14.05;2.65;;;;;;;8.77;94.53;99030.38;5053750;28;20037;-79
2021/12/28 06:20:39;;;;;;;12.45;2.85;;;;;;;8.76;94.91;99036.84;5055318;28;20067;-77
2021/12/28 06:23:05;;;;;;;12.30;2.22;;;;;;;8.77;95.15;99037.66;5054536;28;20090;-79
2021/12/28 06:25:30;;;;;;;11.68;2.38;;;;;;;8.75;94.80;99031.72;5055221;28;20028;-81
2021/12/28 06:27:55;;;;;;;10.68;2.50;;;;;;;8.73;94.31;99020.38;5053899;28;20037;-79
2021/12/28 06:30:21;;;;;;;10.70;2.35;;;;;;;8.76;95.25;99022.56;5054649;28;20044;-77
2021/12/28 06:32:46;;;;;;;12.80;2.60;;;;;;;8.75;94.76;99013.63;5053836;28;20040;-78
2021/12/28 06:35:11;;;;;;;10.07;2.17;;;;;;;8.78;94.67;99015.00;5053567;28;20357;-80
2021/12/28 06:37:37;;;;;;;10.60;2.33;;;;;;;8.79;94.09;99005.84;5054526;28;20443;-80
2021/12/28 06:40:04;;;;;;;11.15;2.60;;;;;;;8.76;94.72;99007.19;5055183;28;20048;-78
2021/12/28 06:42:30;;;;;;;9.07;2.35;;;;;;;8.75;94.81;99007.44;5052404;28;20025;-81
2021/12/28 06:44:55;;;;;;;15.43;2.40;;;;;;;8.76;94.30;99017.97;5054742;28;20041;-79
2021/12/28 06:47:21;;;;;;;10.75;2.42;;;;;;;8.77;94.31;99019.59;5052992;28;20029;-80
2021/12/28 06:49:46;;;;;;;11.30;2.38;;;;;;;8.76;93.87;99011.78;5053249;28;20040;-80
2021/12/28 06:52:13;;;;;;;7.72;2.15;;;;;;;8.75;94.68;99012.81;5054051;28;20040;-79
2021/12/28 06:54:39;;;;;;;11.05;1.80;;;;;;;8.77;94.34;99018.78;5054621;28;20025;-77
2021/12/28 06:57:07;;;;;;;11.00;2.22;;;;;;;8.75;94.82;99004.75;5053308;28;20122;-79
2021/12/28 06:59:34;;;;;;;8.85;2.08;;;;;;;8.73;94.46;98998.81;5054323;28;20098;-77
2021/12/28 07:02:00;;;;;;;11.85;2.15;;;;;;;8.76;94.13;99009.88;5050662;28;20029;-80
2021/12/28 07:04:25;;;;;;;12.45;2.10;;;;;;;8.76;94.28;99017.97;5053992;28;20036;-76
2021/12/28 07:06:51;;;;;;;12.82;2.38;;;;;;;8.74;94.18;99005.81;5053131;28;20037;-79
2021/12/28 07:09:16;;;;;;;10.38;2.40;;;;;;;8.75;94.74;99007.44;5053157;28;20457;-77
2021/12/28 07:11:41;;;;;;;10.38;2.08;;;;;;;8.74;94.55;99003.94;5053999;28;20029;-78
2021/12/28 07:14:09;;;;;;;9.75;1.92;;;;;;;8.76;94.18;99011.78;5054126;28;20056;-77
2021/12/28 07:16:35;;;;;;;6.72;1.95;;;;;;;8.77;94.31;99008.81;5052643;28;20035;-77
2021/12/28 07:19:00;;;;;;;7.05;1.90;;;;;;;8.77;94.33;99006.13;5051517;28;20028;-78
2021/12/28 07:21:25;;;;;;;7.15;1.95;;;;;;;8.80;94.47;99004.75;5052226;28;20044;-80
2021/12/28 07:23:51;;;;;;;8.45;2.10;;;;;;;8.80;93.94;99010.16;5053662;28;20032;-77
2021/12/28 07:26:16;;;;;;;8.27;1.90;;;;;;;8.82;94.77;99010.72;5053469;28;20033;-79
2021/12/28 07:28:41;;;;;;;7.32;2.13;;;;;;;8.80;94.39;99012.84;5053602;28;20112;-77
2021/12/28 07:31:06;;;;;;;7.30;1.90;;;;;;;8.85;94.22;99016.41;5054004;28;20032;-78
2021/12/28 07:33:32;;;;;;;6.95;1.60;;;;;;;8.83;94.98;99001.56;5068883;28;20043;-81
2021/12/28 07:35:57;;;;;;;9.57;1.80;;;;;;;8.83;94.80;99004.25;5054157;28;20043;-77
2021/12/28 07:38:23;;;;;;;8.00;2.03;;;;;;;8.82;94.90;99010.72;5053093;28;20040;-77
2021/12/28 07:40:48;;;;;;;6.57;1.75;;;;;;;8.79;95.57;99005.84;5053490;28;20043;-79
2021/12/28 07:43:13;;;;;;;6.95;1.63;;;;;;;8.79;95.37;99011.25;5051780;28;20466;-79
2021/12/28 07:45:38;;;;;;;8.93;2.10;;;;;;;8.78;95.29;99007.72;5053656;28;20025;-82
2021/12/28 07:48:04;;;;;;;6.88;1.67;;;;;;;8.79;95.50;99000.47;5053615;28;20027;-83
2021/12/28 07:50:29;;;;;;;6.10;1.77;;;;;;;8.76;95.45;98999.09;5053255;28;20502;-77
2021/12/28 07:52:55;;;;;;;6.60;1.55;;;;;;;8.78;96.13;99001.53;5053630;28;20112;-81
2021/12/28 07:55:21;;;;;;;8.52;1.75;;;;;;;8.78;95.90;99004.22;5053217;28;20029;-82
2021/12/28 07:57:46;;;;;;;4.20;1.88;;;;;;;8.79;96.65;99008.56;5053014;28;20060;-78
2021/12/28 08:00:15;;;;;;;8.50;2.00;;;;;;;8.76;96.17;98996.38;5052666;28;20032;-80
2021/12/28 08:02:43;;;;;;;6.05;2.10;;;;;;;8.78;96.25;98991.53;5049890;28;20067;-77
2021/12/28 08:05:09;;;;;;;8.55;2.03;;;;;;;8.77;95.77;98989.09;5052016;28;20036;-78
2021/12/28 08:07:34;;;;;;;5.53;2.10;;;;;;;8.78;96.21;98994.22;5052837;28;20456;-83
2021/12/28 08:09:59;;;;;;;8.75;2.30;;;;;;;8.80;96.48;98991.28;5051911;28;20032;-78
2021/12/28 08:12:24;;;;;;;8.55;2.40;;;;;;;8.80;96.15;98996.69;5052727;28;20376;-79
2021/12/28 08:14:50;;;;;;;5.82;1.90;;;;;;;8.83;96.48;98997.00;5052889;28;20170;-76
2021/12/28 08:17:15;;;;;;;7.40;2.63;;;;;;;8.84;96.58;98995.09;5052919;28;20033;-79
2021/12/28 08:19:40;;;;;;;7.47;2.38;;;;;;;8.85;96.33;98999.44;5052670;28;20108;-77
2021/12/28 08:22:06;;;;;;;6.40;2.40;;;;;;;8.83;96.54;98996.16;5053035;28;20025;-82
2021/12/28 08:24:33;;;;;;;7.68;2.47;;;;;;;8.84;96.84;98997.78;5051753;28;20049;-81
2021/12/28 08:26:59;;;;;;;7.32;2.50;;;;;;;8.84;96.88;98990.50;5052498;28;20137;-81
2021/12/28 08:29:25;;;;;;;7.90;2.60;;;;;;;8.87;96.93;98991.88;5051902;28;20511;-79
2021/12/28 08:31:50;;;;;;;6.30;2.50;;;;;;;8.87;97.38;98989.19;5052719;28;20372;-81
2021/12/28 08:34:15;;;;;;;6.43;2.40;;;;;;;8.89;97.36;98987.03;5052760;28;20041;-77
2021/12/28 08:36:40;;;;;;;7.38;2.67;;;;;;;8.96;96.61;98984.13;5051125;28;20052;-79
2021/12/28 08:39:06;;;;;;;5.28;3.10;;;;;;;8.97;96.38;98981.16;5051474;28;20045;-74
2021/12/28 08:41:31;;;;;;;4.78;2.85;;;;;;;9.06;96.81;98978.78;5052211;28;20029;-75
2021/12/28 08:43:57;;;;;;;6.70;2.67;;;;;;;9.09;96.91;98985.53;5051162;28;20039;-75
2021/12/28 08:46:22;;;;;;;6.72;3.22;;;;;;;9.09;96.65;98980.97;5051239;28;20052;-75
2021/12/28 08:48:47;;;;;;;8.32;3.70;;;;;;;9.10;96.92;98976.38;5052882;28;20430;-77
2021/12/28 08:51:14;;;;;;;6.15;3.58;;;;;;;9.05;96.42;98975.25;5052291;28;20040;-76
2021/12/28 08:53:39;;;;;;;6.18;3.75;;;;;;;9.03;97.37;98982.00;5052551;28;20103;-77
2021/12/28 08:56:05;;;;;;;5.68;3.78;;;;;;;9.01;97.31;98974.19;5051101;28;20170;-82
2021/12/28 08:58:30;;;;;;;7.57;4.00;;;;;;;9.01;97.65;98979.56;5050130;28;20071;-74
2021/12/28 09:00:55;;;;;;;4.53;3.60;;;;;;;8.99;97.49;98979.00;5049892;28;20036;-76
2021/12/28 09:03:21;;;;;;;5.15;3.92;;;;;;;9.02;97.44;98978.47;5052228;28;20379;-78
2021/12/28 09:05:46;;;;;;;4.75;4.30;;;;;;;9.01;97.74;98971.47;5052739;28;20025;-77
2021/12/28 09:08:16;;;;;;;4.93;4.28;;;;;;;9.02;97.41;98961.50;5052065;28;20040;-80
2021/12/28 09:10:41;;;;;;;6.03;4.47;;;;;;;9.05;97.60;98966.38;5051046;28;20126;-80
2021/12/28 09:13:07;;;;;;;6.13;4.70;;;;;;;9.02;98.40;98975.78;5051942;28;20449;-79
2021/12/28 09:15:34;;;;;;;5.10;4.60;;;;;;;9.03;98.33;98969.31;5051479;28;20037;-75
2021/12/28 09:18:00;;;;;;;6.00;5.00;;;;;;;9.05;98.37;98964.47;5050847;28;20040;-77
2021/12/28 09:20:26;;;;;;;7.45;4.82;;;;;;;9.04;98.06;98965.56;5050496;28;20029;-74
2021/12/28 09:22:53;;;;;;;5.05;4.55;;;;;;;9.16;98.26;98964.53;5050462;28;20032;-74
2021/12/28 09:25:19;;;;;;;5.75;4.80;;;;;;;9.19;97.80;98954.03;5051156;28;20033;-82
2021/12/28 09:27:46;;;;;;;9.50;5.32;;;;;;;9.28;98.11;98953.53;5051594;28;20078;-80
2021/12/28 09:30:12;;;;;;;5.72;4.63;;;;;;;9.32;97.60;98950.03;5052026;28;20110;-77
2021/12/28 09:32:39;;;;;;;6.63;4.45;;;;;;;9.36;97.57;98942.22;5055238;28;20155;-72
2021/12/28 09:35:05;;;;;;;5.82;4.65;;;;;;;9.40;97.58;98944.16;5056105;28;20032;-74
2021/12/28 09:37:32;;;;;;;6.82;4.68;;;;;;;9.39;97.92;98942.50;5053453;28;20037;-78
2021/12/28 09:39:58;;;;;;;5.57;4.30;;;;;;;9.46;97.81;98947.66;5054380;28;20102;-77
2021/12/28 09:42:24;;;;;;;5.40;4.38;;;;;;;9.47;97.57;98948.50;5036824;28;20037;-74
2021/12/28 09:44:51;;;;;;;5.30;4.60;;;;;;;9.47;98.20;98940.38;5045649;28;20032;-76
2021/12/28 09:47:18;;;;;;;7.10;4.72;;;;;;;9.45;98.21;98937.94;5055641;28;20384;-74
2021/12/28 09:49:44;;;;;;;5.22;4.72;;;;;;;9.45;97.52;98939.81;5054902;28;20079;-74
2021/12/28 09:52:10;;;;;;;5.18;4.60;;;;;;;9.43;97.59;98933.88;5055115;28;20068;-76
2021/12/28 09:54:36;;;;;;;5.53;4.30;;;;;;;9.42;98.06;98933.09;5055165;28;20064;-76
2021/12/28 09:57:02;;;;;;;4.78;4.05;;;;;;;9.43;97.65;98923.09;5053747;28;20079;-76
2021/12/28 09:59:29;;;;;;;6.45;4.05;;;;;;;9.42;97.77;98926.84;5054253;28;20109;-77
2021/12/28 10:01:55;;;;;;;4.78;3.88;;;;;;;9.43;97.73;98915.78;5052170;28;20497;-78
2021/12/28 10:04:21;;;;;;;4.97;3.78;;;;;;;9.49;98.18;98916.63;5054113;28;20040;-82
2021/12/28 10:06:46;;;;;;;5.47;4.07;;;;;;;9.63;98.42;98917.75;5054498;28;20112;-79
2021/12/28 10:09:18;;;;;;;4.63;4.00;;;;;;;9.67;97.08;98913.44;5053452;28;20028;-81
2021/12/28 10:11:48;;;;;;;;;;;;;;;9.76;97.32;98909.13;5054132;28;20032;-77
2021/12/28 10:14:18;;;;;;;3.88;3.58;;;;;;;9.68;97.01;98909.66;5054028;28;20011;-86
2021/12/28 10:16:52;;;;;;;4.00;3.30;;;;;;;9.67;97.13;98899.94;5053835;28;20021;-77
2021/12/28 10:19:37;;;;;;;3.70;3.22;;;;;;;9.69;97.50;98902.34;5044814;28;20465;-77
2021/12/28 10:22:33;;;;;;;3.20;3.00;;;;;;;9.64;97.41;98889.66;5053630;28;20452;-75
2021/12/28 10:25:03;;;;;;;2.90;2.70;;;;;;;9.61;97.31;98884.78;5052069;28;20036;-79
2021/12/28 10:27:30;;;;;;;2.63;2.42;;;;;;;9.62;97.08;98878.31;5054965;28;20468;-78
2021/12/28 10:30:11;;;;;;;2.58;2.38;;;;;;;9.65;96.81;98869.69;5054929;28;20077;-74
2021/12/28 10:32:38;;;;;;;2.95;2.60;;;;;;;9.74;97.10;98868.06;5053879;28;20111;-71
2021/12/28 10:35:10;;;;;;;3.72;2.20;;;;;;;9.84;96.59;98852.94;5054938;28;20499;-84
2021/12/28 10:37:41;;;;;;;2.40;2.20;;;;;;;9.83;95.93;98851.31;5053055;28;20036;-79
2021/12/28 10:40:12;;;;;;;4.05;2.58;;;;;;;9.85;95.60;98849.97;5054266;28;20086;-78
2021/12/28 10:42:39;;;;;;;;;;;;;;;9.91;95.57;98850.81;5047873;28;20499;-79
2021/12/28 10:45:09;;;;;;;4.95;2.10;;;;;;;9.84;95.71;98850.25;5060455;28;19913;-76
2021/12/28 10:47:34;;;;;;;5.22;2.03;;;;;;;9.84;95.67;98847.53;5053680;28;20071;-75
2021/12/28 10:50:07;;;;;;;6.75;2.00;;;;;;;9.82;95.59;98849.72;5052633;28;20492;-75
2021/12/28 10:52:38;;;;;;;2.40;1.70;;;;;;;9.83;95.16;98854.03;5054063;28;20052;-76
2021/12/28 10:55:18;;;;;;;6.75;2.30;;;;;;;9.85;95.93;98846.47;5059420;28;20035;-76
2021/12/28 10:57:44;;;;;;;3.65;1.95;;;;;;;9.83;96.06;98843.22;5054264;28;20087;-75
2021/12/28 11:00:41;;;;;;;2.30;1.90;;;;;;;9.87;96.16;98841.59;5054724;28;20025;-75
2021/12/28 11:03:29;;;;;;;4.18;2.10;;;;;;;9.81;96.82;98839.97;5053859;28;20488;-75
2021/12/28 11:05:56;;;;;;;3.55;2.00;;;;;;;9.78;96.79;98827.03;5054477;28;20055;-74
2021/12/28 11:08:28;;;;;;;1.80;1.70;;;;;;;9.77;97.11;98826.22;5053838;28;20099;-75
2021/12/28 11:11:00;;;;;;;4.03;2.30;;;;;;;9.78;97.03;98824.31;5035422;28;20528;-75
2021/12/28 11:13:28;;;;;;;3.35;2.20;;;;;;;9.74;97.41;98819.44;5034315;28;20033;-76
2021/12/28 11:15:54;;;;;;;2.08;1.80;;;;;;;9.74;97.63;98811.34;5034410;28;20540;-76
2021/12/28 11:18:23;;;;;;;2.15;1.85;;;;;;;9.73;97.43;98804.31;5047432;28;20103;-74
2021/12/28 11:20:52;;;;;;;1.90;1.80;;;;;;;9.74;98.20;98810.56;5053665;28;20067;-76
2021/12/28 11:23:21;;;;;;;2.03;1.80;;;;;;;9.74;97.97;98807.84;5052859;28;20124;-76
2021/12/28 11:26:08;;;;;;;1.67;1.52;;;;;;;9.74;97.92;98803.25;5053854;28;20028;-76
2021/12/28 11:28:35;;;;;;;1.83;1.60;;;;;;;9.74;97.76;98810.56;5053295;28;20028;-75
2021/12/28 11:31:16;;;;;;;2.10;1.75;;;;;;;9.76;97.67;98805.69;5053932;28;20447;-75
2021/12/28 11:33:45;;;;;;;3.30;1.55;;;;;;;9.74;97.71;98811.34;5053063;28;20043;-75
2021/12/28 11:36:11;;;;;;;1.95;1.25;;;;;;;9.80;96.58;98797.84;5053836;28;20095;-75